Time;durP1;ratioP1;P1;durP2;ratioP2;P2;SDS_P1;SDS_P2;PMS_P1;PMS_P2;Temp;Humidity;BMP_temperature;BMP_pressure;BME280_temperature;BME280_humidity;BME280_pressure;Samples;Min_cycle;Max_cycle;Signal;HPM_P1;HPM_P2
2022/07/11 00:00:09;;;;;;;2.08;1.58;;;;;23.50;102282.00;;;;5027726;28;20215;-80
2022/07/11 00:02:37;;;;;;;3.53;1.10;;;;;23.50;102281.00;;;;5028116;28;20254;-80
2022/07/11 00:05:05;;;;;;;1.42;0.88;;;;;23.50;102283.00;;;;5031080;28;20195;-80
2022/07/11 00:07:32;;;;;;;4.38;1.13;;;;;23.50;102281.00;;;;5027607;28;20212;-80
2022/07/11 00:10:00;;;;;;;3.25;1.48;;;;;23.50;102286.00;;;;5027429;28;20211;-80
2022/07/11 00:12:28;;;;;;;6.47;1.55;;;;;23.50;102281.00;;;;5028678;28;20224;-80
2022/07/11 00:14:56;;;;;;;3.45;1.20;;;;;23.50;102278.00;;;;5027251;28;20220;-80
2022/07/11 00:17:24;;;;;;;2.15;1.02;;;;;23.50;102276.00;;;;5029785;28;20203;-81
2022/07/11 00:19:52;;;;;;;1.77;1.10;;;;;23.50;102279.00;;;;5031812;28;20576;-80
2022/07/11 00:22:20;;;;;;;1.15;0.90;;;;;23.50;102276.00;;;;5027001;28;20208;-80
2022/07/11 00:24:47;;;;;;;5.28;1.10;;;;;23.50;102276.00;;;;5042544;28;20208;-80
2022/07/11 00:27:15;;;;;;;3.83;1.23;;;;;23.50;102275.00;;;;5043172;28;20196;-80
2022/07/11 00:29:42;;;;;;;1.55;0.80;;;;;23.50;102275.00;;;;5027907;28;20283;-81
2022/07/11 00:32:09;;;;;;;2.75;0.90;;;;;23.50;102284.00;;;;5027673;28;20199;-80
2022/07/11 00:34:38;;;;;;;1.80;0.93;;;;;23.50;102277.00;;;;5034369;28;20291;-80
2022/07/11 00:37:06;;;;;;;3.53;0.80;;;;;23.50;102272.00;;;;5043947;28;20227;-80
2022/07/11 00:39:33;;;;;;;1.25;1.13;;;;;23.50;102274.00;;;;5047860;28;20230;-80
2022/07/11 00:42:00;;;;;;;1.90;1.15;;;;;23.50;102276.00;;;;5035329;28;20215;-80
2022/07/11 00:44:27;;;;;;;1.98;0.82;;;;;23.50;102271.00;;;;5038347;28;20210;-80
2022/07/11 00:46:55;;;;;;;2.53;1.30;;;;;23.50;102277.00;;;;5040334;28;20538;-81
2022/07/11 00:49:22;;;;;;;4.50;1.10;;;;;23.50;102267.00;;;;5028112;28;20230;-80
2022/07/11 00:51:51;;;;;;;2.55;0.85;;;;;23.50;102271.00;;;;5027344;28;20204;-80
2022/07/11 00:54:21;;;;;;;1.92;0.95;;;;;23.50;102272.00;;;;5027123;28;20201;-81
2022/07/11 00:56:49;;;;;;;1.88;0.95;;;;;23.50;102270.00;;;;5026940;28;20236;-81
2022/07/11 00:59:19;;;;;;;3.63;0.95;;;;;23.50;102267.00;;;;5030410;28;20200;-81
2022/07/11 01:01:46;;;;;;;4.10;1.30;;;;;23.50;102274.00;;;;5047284;28;20282;-81
2022/07/11 01:04:13;;;;;;;1.75;0.82;;;;;23.50;102266.00;;;;5045871;28;20200;-81
2022/07/11 01:06:41;;;;;;;2.15;0.98;;;;;23.50;102262.00;;;;5046435;28;20677;-81
2022/07/11 01:09:09;;;;;;;1.50;1.00;;;;;23.50;102263.00;;;;5035113;28;20212;-81
2022/07/11 01:11:37;;;;;;;3.50;1.00;;;;;23.50;102262.00;;;;5032599;28;20200;-82
2022/07/11 01:14:04;;;;;;;4.13;1.33;;;;;23.50;102258.00;;;;5046621;28;20210;-81
2022/07/11 01:16:31;;;;;;;2.65;0.90;;;;;23.50;102264.00;;;;5046626;28;20235;-81
2022/07/11 01:18:59;;;;;;;3.45;1.30;;;;;23.50;102259.00;;;;5043481;28;20204;-82
2022/07/11 01:21:30;;;;;;;2.72;1.08;;;;;23.50;102268.00;;;;5027215;28;20573;-81
2022/07/11 01:23:59;;;;;;;1.38;0.63;;;;;23.50;102268.00;;;;5026887;28;20197;-82
2022/07/11 01:26:28;;;;;;;1.30;1.20;;;;;23.50;102267.00;;;;5044417;28;20674;-79
2022/07/11 01:28:57;;;;;;;1.58;0.80;;;;;23.50;102269.00;;;;5034413;28;20203;-82
2022/07/11 01:31:26;;;;;;;2.28;0.70;;;;;23.50;102261.00;;;;5030828;28;20254;-82
2022/07/11 01:33:53;;;;;;;3.72;1.30;;;;;23.50;102273.00;;;;5031033;28;20192;-81
2022/07/11 01:36:21;;;;;;;2.33;0.50;;;;;23.50;102270.00;;;;5038149;28;20236;-81
2022/07/11 01:38:48;;;;;;;1.50;0.60;;;;;23.50;102267.00;;;;5050360;28;20219;-81
2022/07/11 01:41:17;;;;;;;5.45;1.00;;;;;23.50;102266.00;;;;5033759;28;20211;-81
2022/07/11 01:43:44;;;;;;;2.20;1.08;;;;;23.50;102272.00;;;;5032892;28;20208;-81
2022/07/11 01:46:11;;;;;;;3.70;1.08;;;;;23.50;102269.00;;;;5030961;28;20196;-81
2022/07/11 01:48:39;;;;;;;2.72;0.60;;;;;23.50;102265.00;;;;5038787;28;20200;-81
2022/07/11 01:51:07;;;;;;;4.15;1.10;;;;;23.50;102268.00;;;;5030741;28;20192;-81
2022/07/11 01:53:34;;;;;;;1.42;0.52;;;;;23.50;102272.00;;;;5030806;28;20689;-82
2022/07/11 01:56:01;;;;;;;3.20;1.00;;;;;23.50;102269.00;;;;5029598;28;21025;-81
2022/07/11 01:58:31;;;;;;;1.83;0.60;;;;;23.50;102267.00;;;;5030647;28;20831;-82
2022/07/11 02:00:58;;;;;;;1.40;0.98;;;;;23.50;102269.00;;;;5049107;28;20801;-82
2022/07/11 02:03:25;;;;;;;2.33;0.88;;;;;23.50;102273.00;;;;5049431;28;20198;-80
2022/07/11 02:05:53;;;;;;;0.88;0.50;;;;;23.50;102270.00;;;;5031378;28;20196;-80
2022/07/11 02:08:20;;;;;;;1.10;0.60;;;;;23.50;102268.00;;;;5029835;28;21043;-80
2022/07/11 02:10:50;;;;;;;3.03;0.77;;;;;23.50;102263.00;;;;5030085;28;20196;-80
2022/07/11 02:13:20;;;;;;;1.63;0.68;;;;;23.50;102267.00;;;;5044508;28;20192;-80
2022/07/11 02:15:49;;;;;;;1.75;0.80;;;;;23.50;102256.00;;;;5048626;28;20226;-79
2022/07/11 02:18:17;;;;;;;2.15;0.75;;;;;23.50;102262.00;;;;5041002;28;20203;-80
2022/07/11 02:20:45;;;;;;;1.50;0.57;;;;;23.50;102262.00;;;;5049921;28;20210;-80
2022/07/11 02:23:13;;;;;;;1.80;0.68;;;;;23.60;102261.00;;;;5049364;28;20191;-81
2022/07/11 02:25:41;;;;;;;2.35;0.75;;;;;23.60;102260.00;;;;5045989;28;20188;-81
2022/07/11 02:28:09;;;;;;;2.25;0.50;;;;;23.60;102262.00;;;;5029462;28;20208;-80
2022/07/11 02:30:37;;;;;;;1.00;0.60;;;;;23.60;102256.00;;;;5030009;28;20207;-81
2022/07/11 02:33:07;;;;;;;1.05;0.60;;;;;23.60;102254.00;;;;5030179;28;20197;-81
2022/07/11 02:35:35;;;;;;;1.77;0.50;;;;;23.60;102254.00;;;;5029892;28;20216;-80
2022/07/11 02:38:02;;;;;;;1.00;0.43;;;;;23.60;102253.00;;;;5028477;28;20200;-80
2022/07/11 02:40:30;;;;;;;1.48;0.77;;;;;23.60;102250.00;;;;5032922;28;21022;-80
2022/07/11 02:42:57;;;;;;;3.70;0.43;;;;;23.60;102257.00;;;;5029597;28;20683;-80
2022/07/11 02:45:24;;;;;;;1.92;0.52;;;;;23.60;102251.00;;;;5049438;28;20203;-81
2022/07/11 02:47:52;;;;;;;1.00;0.60;;;;;23.60;102250.00;;;;5048211;28;20206;-80
2022/07/11 02:50:21;;;;;;;1.13;0.73;;;;;23.60;102252.00;;;;5031092;28;20211;-80
2022/07/11 02:52:49;;;;;;;3.15;0.88;;;;;23.60;102251.00;;;;5030161;28;20703;-80
2022/07/11 02:55:16;;;;;;;2.42;0.70;;;;;23.60;102248.00;;;;5044484;28;20203;-80
2022/07/11 02:57:44;;;;;;;1.42;0.52;;;;;23.60;102249.00;;;;5047450;28;20204;-81
2022/07/11 03:00:15;;;;;;;0.88;0.50;;;;;23.60;102249.00;;;;5028877;28;20200;-80
2022/07/11 03:02:42;;;;;;;1.27;0.55;;;;;23.60;102245.00;;;;5029126;28;20200;-81
2022/07/11 03:05:10;;;;;;;2.47;0.70;;;;;23.50;102244.00;;;;5028890;28;20197;-80
2022/07/11 03:07:38;;;;;;;0.80;0.60;;;;;23.50;102255.00;;;;5029103;28;20200;-80
2022/07/11 03:10:07;;;;;;;1.27;0.40;;;;;23.50;102260.00;;;;5027828;28;20199;-80
2022/07/11 03:12:34;;;;;;;1.58;0.63;;;;;23.50;102253.00;;;;5028762;28;20193;-81
2022/07/11 03:15:01;;;;;;;3.97;0.90;;;;;23.50;102253.00;;;;5038131;28;20302;-81
2022/07/11 03:17:29;;;;;;;2.58;0.80;;;;;23.50;102251.00;;;;5046663;28;20238;-81
2022/07/11 03:19:56;;;;;;;2.38;0.70;;;;;23.50;102258.00;;;;5047391;28;20203;-81
2022/07/11 03:22:24;;;;;;;3.63;0.70;;;;;23.50;102255.00;;;;5048006;28;20204;-81
2022/07/11 03:24:52;;;;;;;2.70;0.93;;;;;23.50;102267.00;;;;5037783;28;20227;-81
2022/07/11 03:27:20;;;;;;;0.98;0.47;;;;;23.50;102264.00;;;;5048462;28;21034;-81
2022/07/11 03:29:48;;;;;;;1.52;0.70;;;;;23.50;102265.00;;;;5048198;28;20192;-81
2022/07/11 03:32:15;;;;;;;1.30;0.60;;;;;23.50;102266.00;;;;5045967;28;20554;-80
2022/07/11 03:35:40;;;;;;;0.65;0.55;;;;;23.50;102266.00;;;;5048421;28;20277;-81
2022/07/11 03:37:30;;;;;;;0.73;0.60;;;;;23.50;102263.00;;;;5046483;28;20310;-81
2022/07/11 03:39:59;;;;;;;1.98;0.77;;;;;23.50;102263.00;;;;5047751;28;20215;-80
2022/07/11 03:42:26;;;;;;;3.80;0.60;;;;;23.50;102264.00;;;;5047025;28;20204;-80
2022/07/11 03:44:54;;;;;;;1.25;0.60;;;;;23.50;102262.00;;;;5047838;28;20217;-81
2022/07/11 03:47:21;;;;;;;2.13;0.90;;;;;23.50;102270.00;;;;5028589;28;20207;-81
2022/07/11 03:49:49;;;;;;;1.33;0.68;;;;;23.50;102274.00;;;;5028505;28;20589;-82
2022/07/11 03:52:16;;;;;;;0.85;0.75;;;;;23.50;102275.00;;;;5029718;28;20211;-80
2022/07/11 03:54:44;;;;;;;1.08;0.77;;;;;23.50;102273.00;;;;5028705;28;20199;-81
2022/07/11 03:57:12;;;;;;;1.15;0.68;;;;;23.40;102266.00;;;;5028996;28;20232;-81
2022/07/11 03:59:40;;;;;;;0.82;0.63;;;;;23.40;102273.00;;;;5044945;28;20207;-81
2022/07/11 04:02:07;;;;;;;2.25;0.70;;;;;23.40;102263.00;;;;5042707;28;20212;-81
2022/07/11 04:04:34;;;;;;;2.42;0.82;;;;;23.40;102267.00;;;;5028856;28;20204;-81
2022/07/11 04:07:02;;;;;;;0.82;0.60;;;;;23.40;102270.00;;;;5027908;28;20189;-81
2022/07/11 04:09:29;;;;;;;2.10;0.82;;;;;23.40;102281.00;;;;5028669;28;20189;-81
2022/07/11 04:11:56;;;;;;;2.28;0.77;;;;;23.40;102280.00;;;;5028565;28;20209;-81
2022/07/11 04:14:25;;;;;;;1.77;1.00;;;;;23.40;102269.00;;;;5027513;28;20211;-81
2022/07/11 04:16:52;;;;;;;1.30;0.77;;;;;23.40;102274.00;;;;5044326;28;20231;-81
2022/07/11 04:19:19;;;;;;;2.92;0.65;;;;;23.40;102271.00;;;;5047464;28;20200;-82
2022/07/11 04:21:47;;;;;;;3.22;0.88;;;;;23.40;102272.00;;;;5046481;28;20202;-82
2022/07/11 04:24:14;;;;;;;2.63;0.80;;;;;23.40;102269.00;;;;5027151;28;20215;-81
2022/07/11 04:26:42;;;;;;;0.88;0.70;;;;;23.40;102278.00;;;;5027489;28;20207;-81
2022/07/11 04:29:09;;;;;;;2.70;0.90;;;;;23.40;102276.00;;;;5027908;28;20302;-82
2022/07/11 04:31:38;;;;;;;1.02;0.63;;;;;23.30;102276.00;;;;5028201;28;20212;-82
2022/07/11 04:34:05;;;;;;;1.55;0.80;;;;;23.30;102282.00;;;;5046670;28;20211;-81
2022/07/11 04:36:32;;;;;;;2.05;0.73;;;;;23.30;102276.00;;;;5038256;28;20220;-81
2022/07/11 04:39:00;;;;;;;3.50;0.88;;;;;23.30;102270.00;;;;5027206;28;20218;-82
2022/07/11 04:41:27;;;;;;;4.30;1.00;;;;;23.30;102278.00;;;;5028408;28;20283;-81
2022/07/11 04:43:54;;;;;;;1.40;0.77;;;;;23.30;102272.00;;;;5028078;28;20204;-81
2022/07/11 04:46:21;;;;;;;1.15;0.80;;;;;23.30;102271.00;;;;5033988;28;20203;-81
2022/07/11 04:48:50;;;;;;;3.00;0.80;;;;;23.30;102262.00;;;;5045999;28;20231;-82
2022/07/11 04:51:17;;;;;;;0.70;0.70;;;;;23.30;102267.00;;;;5027311;28;20203;-80
2022/07/11 04:53:45;;;;;;;1.83;0.80;;;;;23.30;102274.00;;;;5046607;28;20202;-81
2022/07/11 04:56:12;;;;;;;1.98;0.90;;;;;23.30;102277.00;;;;5047482;28;20239;-81
2022/07/11 04:58:39;;;;;;;1.23;0.70;;;;;23.30;102274.00;;;;5033012;28;20204;-82
2022/07/11 05:01:07;;;;;;;2.40;0.70;;;;;23.30;102278.00;;;;5034602;28;20200;-81
2022/07/11 05:03:34;;;;;;;1.00;0.73;;;;;23.30;102277.00;;;;5031088;28;21140;-81
2022/07/11 05:06:03;;;;;;;2.15;1.20;;;;;23.30;102277.00;;;;5033303;28;20204;-81
2022/07/11 05:08:30;;;;;;;1.02;0.80;;;;;23.30;102278.00;;;;5031453;28;20207;-81
2022/07/11 05:10:58;;;;;;;2.10;0.80;;;;;23.30;102277.00;;;;5040206;28;20196;-81
2022/07/11 05:13:25;;;;;;;0.73;0.70;;;;;23.30;102292.00;;;;5031349;28;20207;-82
2022/07/11 05:15:52;;;;;;;1.48;0.90;;;;;23.40;102289.00;;;;5041409;28;20295;-81
2022/07/11 05:18:19;;;;;;;0.73;0.73;;;;;23.30;102295.00;;;;5041112;28;20243;-80
2022/07/11 05:20:48;;;;;;;1.38;0.70;;;;;23.30;102295.00;;;;5051364;28;20199;-80
2022/07/11 05:23:17;;;;;;;1.27;0.80;;;;;23.40;102305.00;;;;5041465;28;20282;-80
2022/07/11 05:25:44;;;;;;;0.90;0.60;;;;;23.40;102304.00;;;;5030469;28;20690;-80
2022/07/11 05:28:11;;;;;;;1.42;0.65;;;;;23.40;102308.00;;;;5031091;28;20223;-81
2022/07/11 05:30:38;;;;;;;1.30;0.75;;;;;23.40;102303.00;;;;5041028;28;20203;-80
2022/07/11 05:33:06;;;;;;;0.55;0.43;;;;;23.40;102307.00;;;;5030191;28;20223;-80
2022/07/11 05:35:33;;;;;;;1.27;1.13;;;;;23.40;102310.00;;;;5031459;28;20204;-80
2022/07/11 05:38:00;;;;;;;1.38;0.70;;;;;23.40;102315.00;;;;5049949;28;20756;-80
2022/07/11 05:40:29;;;;;;;1.52;0.82;;;;;23.40;102312.00;;;;5043069;28;20223;-80
2022/07/11 05:42:56;;;;;;;1.80;0.93;;;;;23.40;102310.00;;;;5044324;28;20203;-81
2022/07/11 05:45:24;;;;;;;2.38;0.90;;;;;23.40;102303.00;;;;5048796;28;20196;-81
2022/07/11 05:47:51;;;;;;;0.88;0.60;;;;;23.40;102314.00;;;;5050750;28;20641;-81
2022/07/11 05:50:18;;;;;;;1.00;0.90;;;;;23.40;102314.00;;;;5049767;28;20234;-80
2022/07/11 05:52:45;;;;;;;0.80;0.70;;;;;23.40;102314.00;;;;5050694;28;20195;-80
2022/07/11 05:55:13;;;;;;;0.70;0.52;;;;;23.40;102313.00;;;;5048118;28;20202;-80
2022/07/11 05:57:42;;;;;;;1.58;0.93;;;;;23.50;102310.00;;;;5041719;28;20232;-80
2022/07/11 06:00:10;;;;;;;0.70;0.70;;;;;23.50;102313.00;;;;5030467;28;20204;-80
2022/07/11 06:02:37;;;;;;;0.98;0.63;;;;;23.50;102316.00;;;;5030560;28;20192;-81
2022/07/11 06:05:05;;;;;;;0.88;0.70;;;;;23.40;102311.00;;;;5030911;28;20215;-81
2022/07/11 06:10:18;;;;;;;0.60;0.50;;;;;23.40;102318.00;;;;5035979;28;20199;-80
2022/07/11 06:12:46;;;;;;;1.13;0.65;;;;;23.40;102322.00;;;;5032241;28;20693;-80
2022/07/11 06:15:13;;;;;;;1.08;0.68;;;;;23.40;102322.00;;;;5033683;28;20817;-81
2022/07/11 06:17:41;;;;;;;2.08;0.60;;;;;23.40;102321.00;;;;5046275;28;20232;-81
2022/07/11 06:20:09;;;;;;;1.00;0.73;;;;;23.40;102324.00;;;;5049789;28;20203;-80
2022/07/11 06:22:36;;;;;;;0.88;0.60;;;;;23.50;102319.00;;;;5050076;28;20249;-80
2022/07/11 06:25:04;;;;;;;1.40;0.70;;;;;23.50;102319.00;;;;5047892;28;20215;-80
2022/07/11 06:27:32;;;;;;;1.33;0.52;;;;;23.50;102310.00;;;;5050065;28;20218;-80
2022/07/11 06:30:00;;;;;;;1.23;0.63;;;;;23.50;102314.00;;;;5048443;28;20203;-80
2022/07/11 06:32:28;;;;;;;1.13;0.77;;;;;23.50;102315.00;;;;5042244;28;20203;-81
2022/07/11 06:34:55;;;;;;;0.40;0.40;;;;;23.60;102318.00;;;;5030220;28;20964;-81
2022/07/11 06:37:22;;;;;;;0.77;0.40;;;;;23.60;102312.00;;;;5034427;28;20220;-80
2022/07/11 06:39:50;;;;;;;0.80;0.50;;;;;23.60;102313.00;;;;5046602;28;20223;-81
2022/07/11 06:42:17;;;;;;;0.57;0.40;;;;;23.60;102322.00;;;;5036827;28;20196;-80
2022/07/11 06:44:44;;;;;;;2.70;0.73;;;;;23.70;102319.00;;;;5039060;28;20203;-79
2022/07/11 06:47:13;;;;;;;0.63;0.50;;;;;23.70;102315.00;;;;5044249;28;20192;-80
2022/07/11 06:49:40;;;;;;;1.48;0.40;;;;;23.70;102323.00;;;;5038950;28;20200;-79
2022/07/11 06:52:07;;;;;;;0.82;0.50;;;;;23.80;102322.00;;;;5048841;28;20211;-80
2022/07/11 06:54:35;;;;;;;0.70;0.38;;;;;23.80;102318.00;;;;5045945;28;20218;-79
2022/07/11 06:57:02;;;;;;;0.82;0.52;;;;;23.80;102314.00;;;;5033219;28;20721;-82
2022/07/11 06:59:29;;;;;;;0.30;0.28;;;;;23.80;102310.00;;;;5035658;28;20212;-80
2022/07/11 07:01:57;;;;;;;0.30;0.30;;;;;23.90;102309.00;;;;5033192;28;20197;-80
2022/07/11 07:04:30;;;;;;;0.47;0.47;;;;;23.80;102307.00;;;;5036176;28;21752;-79
2022/07/11 07:06:58;;;;;;;0.65;0.50;;;;;23.90;102308.00;;;;5037828;28;20200;-79
2022/07/11 07:09:26;;;;;;;0.47;0.30;;;;;24.00;102314.00;;;;5032386;28;20200;-79
2022/07/11 07:11:54;;;;;;;0.20;0.20;;;;;24.10;102310.00;;;;5038921;28;20220;-79
2022/07/11 07:14:22;;;;;;;1.38;0.50;;;;;24.20;102307.00;;;;5033264;28;20291;-79
2022/07/11 07:16:49;;;;;;;0.50;0.40;;;;;24.30;102311.00;;;;5039936;28;20239;-80
2022/07/11 07:19:17;;;;;;;1.20;0.30;;;;;24.30;102308.00;;;;5035149;28;20196;-80
2022/07/11 07:21:45;;;;;;;0.65;0.20;;;;;24.30;102310.00;;;;5035895;28;20681;-81
2022/07/11 07:24:13;;;;;;;1.17;0.22;;;;;24.40;102305.00;;;;5032534;28;20196;-79
2022/07/11 07:26:40;;;;;;;0.30;0.20;;;;;24.40;102307.00;;;;5036478;28;20210;-79
2022/07/11 07:29:07;;;;;;;0.25;0.10;;;;;24.40;102314.00;;;;5041978;28;20200;-80
2022/07/11 07:31:35;;;;;;;0.85;0.20;;;;;24.40;102317.00;;;;5029515;28;20200;-80
2022/07/11 07:34:02;;;;;;;0.63;0.30;;;;;24.50;102314.00;;;;5034493;28;20207;-80
2022/07/11 07:36:29;;;;;;;0.45;0.25;;;;;24.50;102315.00;;;;5037840;28;20206;-81
2022/07/11 07:38:58;;;;;;;0.25;0.10;;;;;24.50;102320.00;;;;5030381;28;20236;-80
2022/07/11 07:41:25;;;;;;;0.30;0.13;;;;;24.60;102315.00;;;;5037322;28;20575;-80
2022/07/11 07:43:52;;;;;;;0.55;0.20;;;;;24.60;102318.00;;;;5029685;28;20188;-79
2022/07/11 07:46:20;;;;;;;0.30;0.13;;;;;24.60;102316.00;;;;5043002;28;20196;-79
2022/07/11 07:48:47;;;;;;;0.50;0.20;;;;;24.70;102324.00;;;;5029610;28;20204;-80
2022/07/11 07:51:14;;;;;;;0.30;0.10;;;;;24.70;102327.00;;;;5033176;28;20211;-80
2022/07/11 07:53:42;;;;;;;0.10;0.10;;;;;24.70;102329.00;;;;5031220;28;20197;-80
2022/07/11 07:56:10;;;;;;;0.20;0.15;;;;;24.70;102323.00;;;;5028659;28;20232;-79
2022/07/11 07:58:38;;;;;;;0.10;0.10;;;;;24.70;102326.00;;;;5032524;28;20224;-80
2022/07/11 08:03:51;;;;;;;0.30;0.20;;;;;24.70;102331.00;;;;5026991;28;20992;-79
2022/07/11 08:06:18;;;;;;;1.70;0.20;;;;;24.70;102334.00;;;;5039352;28;20274;-80
2022/07/11 08:08:46;;;;;;;0.40;0.20;;;;;24.70;102331.00;;;;5042619;28;20203;-80
2022/07/11 08:11:14;;;;;;;0.28;0.15;;;;;24.70;102335.00;;;;5036460;28;20227;-80
2022/07/11 08:13:42;;;;;;;0.40;0.20;;;;;24.70;102332.00;;;;5036981;28;20197;-79
2022/07/11 08:16:09;;;;;;;0.22;0.10;;;;;24.70;102332.00;;;;5043918;28;20669;-80
2022/07/11 08:18:36;;;;;;;0.10;0.10;;;;;24.80;102332.00;;;;5039495;28;20220;-80
2022/07/11 08:21:04;;;;;;;0.35;0.30;;;;;24.80;102332.00;;;;5027342;28;20192;-81
2022/07/11 08:23:31;;;;;;;0.30;0.20;;;;;24.80;102330.00;;;;5028478;28;20581;-80
2022/07/11 08:25:58;;;;;;;0.32;0.20;;;;;24.80;102338.00;;;;5033564;28;20208;-80
2022/07/11 08:28:27;;;;;;;0.35;0.17;;;;;24.90;102338.00;;;;5027698;28;20200;-80
2022/07/11 08:30:54;;;;;;;0.47;0.15;;;;;25.00;102337.00;;;;5028546;28;20203;-80
2022/07/11 08:33:22;;;;;;;0.73;0.40;;;;;25.10;102336.00;;;;5034485;28;20203;-80
2022/07/11 08:35:49;;;;;;;1.05;0.30;;;;;25.10;102332.00;;;;5043197;28;20216;-80
2022/07/11 08:38:16;;;;;;;0.28;0.17;;;;;25.20;102337.00;;;;5028032;28;20227;-80
2022/07/11 08:40:44;;;;;;;0.20;0.20;;;;;25.30;102331.00;;;;5030338;28;20230;-80
2022/07/11 08:43:15;;;;;;;0.10;0.10;;;;;25.30;102326.00;;;;5026656;28;20207;-80
2022/07/11 08:45:45;;;;;;;0.28;0.17;;;;;25.30;102327.00;;;;5037957;28;21057;-81
2022/07/11 08:48:13;;;;;;;0.47;0.20;;;;;25.40;102324.00;;;;5034480;28;20196;-80
2022/07/11 08:50:40;;;;;;;0.22;0.20;;;;;25.50;102317.00;;;;5030250;28;20196;-81
2022/07/11 08:53:08;;;;;;;0.25;0.20;;;;;25.50;102319.00;;;;5029279;28;20196;-80
2022/07/11 08:55:36;;;;;;;0.80;0.30;;;;;25.50;102315.00;;;;5027409;28;20780;-80
2022/07/11 08:58:04;;;;;;;0.73;0.25;;;;;25.50;102317.00;;;;5030392;28;20227;-80
2022/07/11 09:00:31;;;;;;;0.30;0.20;;;;;25.60;102319.00;;;;5046257;28;20192;-80
2022/07/11 09:03:01;;;;;;;1.27;0.50;;;;;25.60;102321.00;;;;5036784;28;20207;-81
2022/07/11 09:05:29;;;;;;;0.45;0.20;;;;;25.60;102316.00;;;;5040390;28;20223;-81
2022/07/11 09:07:58;;;;;;;0.38;0.30;;;;;25.60;102325.00;;;;5029979;28;20200;-80
2022/07/11 09:10:25;;;;;;;0.22;0.10;;;;;25.60;102322.00;;;;5032462;28;20193;-80
2022/07/11 09:13:00;;;;;;;0.47;0.30;;;;;25.60;102325.00;;;;5042075;28;20203;-80
2022/07/11 09:15:33;;;;;;;0.75;0.30;;;;;25.60;102329.00;;;;5043393;28;20669;-80
2022/07/11 09:18:02;;;;;;;0.30;0.17;;;;;25.70;102327.00;;;;5027642;28;20803;-80
2022/07/11 09:25:19;;;;;;;0.10;0.10;;;;;25.70;102329.00;;;;5027715;28;20207;-80
2022/07/11 09:26:11;;;;;;;1.65;0.17;;;;;25.80;102338.00;;;;5033847;28;20689;-80
2022/07/11 09:28:38;;;;;;;0.20;0.17;;;;;25.80;102332.00;;;;5032946;28;20211;-80
2022/07/11 09:31:18;;;;;;;1.25;0.28;;;;;25.70;102334.00;;;;5043906;28;20199;-80
2022/07/11 09:34:01;;;;;;;0.30;0.30;;;;;25.60;102343.00;;;;5036509;28;20191;-81
2022/07/11 09:36:36;;;;;;;0.65;0.38;;;;;25.70;102333.00;;;;5033370;28;20192;-81
2022/07/11 09:39:04;;;;;;;0.75;0.30;;;;;25.70;102332.00;;;;5026988;28;20235;-81
2022/07/11 09:41:33;;;;;;;0.35;0.20;;;;;25.70;102331.00;;;;5026593;28;20201;-81
2022/07/11 09:44:11;;;;;;;1.20;0.20;;;;;25.70;102330.00;;;;5039657;28;20239;-80
2022/07/11 09:46:39;;;;;;;0.30;0.30;;;;;25.70;102334.00;;;;5031822;28;20200;-80
2022/07/11 09:49:08;;;;;;;0.40;0.30;;;;;25.70;102338.00;;;;5044394;28;20203;-81
2022/07/11 09:51:37;;;;;;;0.40;0.15;;;;;25.70;102340.00;;;;5030968;28;20655;-80
2022/07/11 09:54:06;;;;;;;0.55;0.20;;;;;25.70;102340.00;;;;5028706;28;20195;-80
2022/07/11 09:56:40;;;;;;;0.22;0.10;;;;;25.80;102336.00;;;;5035313;28;20232;-81
2022/07/11 09:59:09;;;;;;;0.10;0.10;;;;;25.80;102331.00;;;;5043117;28;20232;-80
2022/07/11 10:01:36;;;;;;;0.98;0.20;;;;;25.90;102328.00;;;;5041353;28;20246;-81
2022/07/11 10:04:07;;;;;;;1.00;0.15;;;;;25.90;102330.00;;;;5030322;28;20222;-81
2022/07/11 10:06:34;;;;;;;0.28;0.17;;;;;25.90;102333.00;;;;5031801;28;20228;-81
2022/07/11 10:09:04;;;;;;;0.38;0.20;;;;;26.00;102327.00;;;;5029545;28;20196;-81
2022/07/11 10:11:32;;;;;;;1.88;0.10;;;;;26.00;102334.00;;;;5029952;28;20246;-81
2022/07/11 10:14:01;;;;;;;0.15;0.10;;;;;26.00;102332.00;;;;5041501;28;20202;-81
2022/07/11 10:16:51;;;;;;;0.10;0.10;;;;;26.00;102336.00;;;;5032327;28;20226;-81
2022/07/11 10:19:36;;;;;;;0.10;0.10;;;;;26.00;102333.00;;;;5046599;28;20219;-82
2022/07/11 10:22:16;;;;;;;0.08;0.03;;;;;26.10;102332.00;;;;5028875;28;20204;-82
2022/07/11 10:24:53;;;;;;;0.15;0.10;;;;;26.10;102334.00;;;;5031398;28;20192;-80
2022/07/11 10:27:30;;;;;;;0.20;0.10;;;;;26.10;102339.00;;;;5029441;28;20192;-81
2022/07/11 10:29:58;;;;;;;0.20;0.10;;;;;26.20;102338.00;;;;5039984;28;20208;-80
2022/07/11 10:32:25;;;;;;;0.08;0.08;;;;;26.20;102344.00;;;;5029956;28;20280;-80
2022/07/11 10:35:18;;;;;;;0.10;0.00;;;;;26.10;102342.00;;;;5028728;28;20207;-81
2022/07/11 10:37:49;;;;;;;0.13;0.10;;;;;26.30;102340.00;;;;5015867;28;20196;-80
2022/07/11 10:40:37;;;;;;;0.38;0.10;;;;;26.30;102340.00;;;;5028846;28;20216;-80
2022/07/11 10:43:04;;;;;;;0.30;0.10;;;;;26.40;102346.00;;;;5029296;28;20199;-80
2022/07/11 10:45:51;;;;;;;0.10;0.08;;;;;26.30;102339.00;;;;5030768;28;20196;-80
2022/07/11 10:48:18;;;;;;;0.10;0.10;;;;;26.50;102343.00;;;;5028525;28;20215;-80
2022/07/11 10:50:48;;;;;;;0.20;0.10;;;;;26.50;102345.00;;;;5036389;28;20211;-81
2022/07/11 10:53:23;;;;;;;0.13;0.10;;;;;26.40;102348.00;;;;5039761;28;20207;-81
2022/07/11 10:56:06;;;;;;;0.28;0.20;;;;;26.40;102347.00;;;;5029368;28;20224;-80
2022/07/11 10:58:35;;;;;;;0.30;0.20;;;;;26.60;102344.00;;;;5035968;28;20278;-80
2022/07/11 11:01:11;;;;;;;0.20;0.15;;;;;26.50;102350.00;;;;5030355;28;20245;-80
2022/07/11 11:03:38;;;;;;;0.55;0.40;;;;;26.70;102341.00;;;;5029194;28;20258;-80
2022/07/11 11:06:08;;;;;;;0.20;0.10;;;;;26.70;102345.00;;;;5032472;28;20206;-80
2022/07/11 11:08:46;;;;;;;0.08;0.08;;;;;26.70;102341.00;;;;5029117;28;20208;-80
2022/07/11 11:11:37;;;;;;;0.15;0.10;;;;;26.70;102349.00;;;;5029479;28;20199;-81
2022/07/11 11:14:25;;;;;;;0.28;0.20;;;;;26.80;102349.00;;;;5035424;28;20225;-80
2022/07/11 11:16:55;;;;;;;0.98;0.20;;;;;27.00;102344.00;;;;5028438;28;20211;-80
2022/07/11 11:19:54;;;;;;;0.30;0.20;;;;;26.90;102341.00;;;;5032520;28;20228;-80
2022/07/11 11:22:24;;;;;;;0.30;0.10;;;;;27.00;102335.00;;;;5028038;28;20196;-80
2022/07/11 11:24:54;;;;;;;0.17;0.10;;;;;27.10;102340.00;;;;5027955;28;20192;-79
2022/07/11 11:27:22;;;;;;;0.15;0.10;;;;;27.10;102340.00;;;;5028680;28;20659;-80
2022/07/11 11:29:53;;;;;;;0.20;0.20;;;;;27.10;102344.00;;;;5031090;28;20193;-81
2022/07/11 11:32:22;;;;;;;0.10;0.10;;;;;27.20;102344.00;;;;5027336;28;20196;-81
2022/07/11 11:34:49;;;;;;;0.20;0.10;;;;;27.30;102341.00;;;;5035718;28;20211;-80
2022/07/11 11:37:18;;;;;;;0.00;0.00;;;;;27.30;102346.00;;;;5039505;28;20567;-81
2022/07/11 11:39:47;;;;;;;0.40;0.30;;;;;27.30;102347.00;;;;5042552;28;20223;-81
2022/07/11 11:42:16;;;;;;;0.40;0.20;;;;;27.40;102345.00;;;;5031326;28;20581;-82
2022/07/11 11:44:55;;;;;;;0.30;0.10;;;;;27.30;102343.00;;;;5028895;28;20196;-82
2022/07/11 11:47:23;;;;;;;0.20;0.20;;;;;27.50;102336.00;;;;5028024;28;20200;-82
2022/07/11 11:49:51;;;;;;;0.30;0.25;;;;;27.50;102334.00;;;;5027811;28;20716;-82
2022/07/11 11:52:19;;;;;;;0.10;0.10;;;;;27.50;102332.00;;;;5025165;28;20211;-80
2022/07/11 11:54:57;;;;;;;0.10;0.10;;;;;27.50;102336.00;;;;5028008;28;20651;-81
2022/07/11 11:57:26;;;;;;;0.35;0.28;;;;;27.60;102332.00;;;;5028207;28;20220;-81
2022/07/11 11:59:53;;;;;;;0.13;0.10;;;;;27.70;102335.00;;;;5027922;28;20312;-81
2022/07/11 12:02:29;;;;;;;0.00;0.00;;;;;27.70;102334.00;;;;5027630;28;20208;-80
2022/07/11 12:04:57;;;;;;;0.10;0.10;;;;;27.80;102331.00;;;;5034105;28;20212;-81
2022/07/11 12:07:30;;;;;;;0.40;0.20;;;;;27.80;102328.00;;;;5030890;28;20867;-80
2022/07/11 12:10:03;;;;;;;0.30;0.20;;;;;27.80;102326.00;;;;5027609;28;20204;-82
2022/07/11 12:12:48;;;;;;;0.00;0.00;;;;;27.90;102329.00;;;;5043254;28;20613;-80
2022/07/11 12:15:28;;;;;;;0.25;0.20;;;;;27.80;102332.00;;;;5035429;28;20620;-82
2022/07/11 12:18:00;;;;;;;0.20;0.10;;;;;27.80;102329.00;;;;5036860;28;20200;-81
2022/07/11 12:20:44;;;;;;;0.20;0.10;;;;;27.80;102331.00;;;;5042897;28;20223;-81
2022/07/11 12:23:16;;;;;;;0.10;0.10;;;;;27.90;102327.00;;;;5027644;28;20207;-81
2022/07/11 12:25:45;;;;;;;0.68;0.68;;;;;27.80;102329.00;;;;5030704;28;20207;-80